createdAt,value
2023-02-16T00:01:11.807Z,31.57
2023-02-16T00:03:43.993Z,31.17
2023-02-16T00:06:16.108Z,30.37
2023-02-16T00:08:45.829Z,32.60
2023-02-16T00:11:39.090Z,31.33
2023-02-16T00:14:10.023Z,31.00
2023-02-16T00:16:38.724Z,28.90
2023-02-16T00:19:27.332Z,30.17
2023-02-16T00:21:57.281Z,29.73
2023-02-16T00:24:27.432Z,30.50
2023-02-16T00:26:56.029Z,30.87
2023-02-16T00:29:29.277Z,30.57
2023-02-16T00:31:59.620Z,30.90
2023-02-16T00:34:34.641Z,30.30
2023-02-16T00:37:05.065Z,32.17
2023-02-16T00:39:33.646Z,31.40
2023-02-16T00:42:04.467Z,29.90
2023-02-16T00:44:37.364Z,30.67
2023-02-16T00:47:17.935Z,31.40
2023-02-16T00:49:47.812Z,31.37
2023-02-16T00:52:34.367Z,30.17
2023-02-16T00:55:04.104Z,30.63
2023-02-16T00:57:37.099Z,32.23
2023-02-16T01:00:08.954Z,31.50
2023-02-16T01:02:37.609Z,31.20
2023-02-16T01:05:10.471Z,31.93
2023-02-16T01:07:56.141Z,30.53
2023-02-16T01:10:42.626Z,31.80
2023-02-16T01:13:12.304Z,30.37
2023-02-16T01:15:40.819Z,33.23
2023-02-16T01:18:09.594Z,33.30
2023-02-16T01:20:39.304Z,31.37
2023-02-16T01:23:10.422Z,31.27
2023-02-16T01:25:39.345Z,30.13
2023-02-16T01:28:19.948Z,29.97
2023-02-16T01:30:48.621Z,31.50
2023-02-16T01:33:17.032Z,29.53
2023-02-16T01:35:47.322Z,30.57
2023-02-16T01:38:19.876Z,31.43
2023-02-16T01:40:57.620Z,30.60
2023-02-16T01:43:29.999Z,30.60
2023-02-16T01:46:03.332Z,32.27
2023-02-16T01:48:33.680Z,31.90
2023-02-16T01:51:08.257Z,31.10
2023-02-16T01:53:41.412Z,30.93
2023-02-16T01:56:21.240Z,30.13
2023-02-16T01:58:54.151Z,29.73
2023-02-16T02:01:54.030Z,29.97
2023-02-16T02:04:47.985Z,30.83
2023-02-16T02:07:28.010Z,30.17
2023-02-16T02:10:08.513Z,30.23
2023-02-16T02:12:44.746Z,29.80
2023-02-16T02:15:18.220Z,29.50
2023-02-16T02:17:46.662Z,30.13
2023-02-16T02:20:45.667Z,29.23
2023-02-16T02:23:33.924Z,30.03
2023-02-16T02:26:45.179Z,29.97
2023-02-16T02:29:57.980Z,29.63
2023-02-16T02:32:40.911Z,32.73
2023-02-16T02:35:30.885Z,30.20
2023-02-16T02:38:11.402Z,30.03
2023-02-16T02:40:50.178Z,30.57
2023-02-16T02:43:24.558Z,30.30
2023-02-16T02:45:58.396Z,29.77
2023-02-16T02:48:32.112Z,30.13
2023-02-16T02:51:19.880Z,29.20
2023-02-16T02:54:12.843Z,31.30
2023-02-16T02:57:05.383Z,29.30
2023-02-16T02:59:53.896Z,30.83
2023-02-16T03:02:25.888Z,30.40
2023-02-16T03:04:57.892Z,32.00
2023-02-16T03:07:46.708Z,29.90
2023-02-16T03:10:34.324Z,29.70
2023-02-16T03:13:05.172Z,31.60
2023-02-16T03:15:36.161Z,29.97
2023-02-16T03:18:26.060Z,29.83
2023-02-16T03:21:12.427Z,29.73
2023-02-16T03:24:00.491Z,28.30
2023-02-16T03:26:48.827Z,30.10
2023-02-16T03:29:22.662Z,26.50
2023-02-16T03:31:52.065Z,28.77
2023-02-16T03:34:23.419Z,27.67
2023-02-16T03:36:55.068Z,29.73
2023-02-16T03:39:23.494Z,29.33
2023-02-16T03:41:53.297Z,29.03
2023-02-16T03:44:22.150Z,29.80
2023-02-16T03:46:50.636Z,30.83
2023-02-16T03:49:19.512Z,31.17
2023-02-16T03:51:49.414Z,31.73
2023-02-16T03:54:17.809Z,30.73
2023-02-16T03:56:46.443Z,30.93
2023-02-16T03:59:14.804Z,29.27
2023-02-16T04:01:43.180Z,30.07
2023-02-16T04:04:13.011Z,29.07
2023-02-16T04:06:41.685Z,31.23
2023-02-16T04:09:12.132Z,30.43
2023-02-16T04:11:59.894Z,30.03
2023-02-16T04:14:28.242Z,29.33
2023-02-16T04:16:57.040Z,29.93
2023-02-16T04:19:25.576Z,30.87
2023-02-16T04:21:54.049Z,32.43
2023-02-16T04:24:23.944Z,30.40
2023-02-16T04:26:52.376Z,32.97
2023-02-16T04:29:20.761Z,31.50
2023-02-16T04:31:49.963Z,31.07
2023-02-16T04:34:18.597Z,30.83
2023-02-16T04:36:47.062Z,30.57
2023-02-16T04:39:15.476Z,31.27
2023-02-16T04:41:45.262Z,32.60
2023-02-16T04:44:13.762Z,31.53
2023-02-16T04:46:42.034Z,30.77
2023-02-16T04:49:10.394Z,29.87
2023-02-16T04:51:40.043Z,31.83
2023-02-16T04:54:09.127Z,30.03
2023-02-16T04:56:37.524Z,30.30
2023-02-16T04:59:07.297Z,31.53
2023-02-16T05:01:35.651Z,29.73
2023-02-16T05:04:04.189Z,30.03
2023-02-16T05:06:32.892Z,31.33
2023-02-16T05:09:01.314Z,33.43
2023-02-16T05:11:47.515Z,30.43
2023-02-16T05:14:38.474Z,32.07
2023-02-16T05:17:06.779Z,31.53
2023-02-16T05:19:37.814Z,29.67
2023-02-16T05:22:06.661Z,31.63
2023-02-16T05:24:36.106Z,29.57
2023-02-16T05:27:05.627Z,29.43
2023-02-16T05:29:35.802Z,28.13
2023-02-16T05:32:04.993Z,28.37
2023-02-16T05:34:33.771Z,27.70
2023-02-16T05:37:02.174Z,27.33
2023-02-16T05:39:30.656Z,26.57
2023-02-16T05:41:59.114Z,25.87
2023-02-16T05:44:27.635Z,27.70
2023-02-16T05:46:57.775Z,27.90
2023-02-16T05:49:26.256Z,27.90
2023-02-16T05:51:54.739Z,28.33
2023-02-16T05:54:23.094Z,29.27
2023-02-16T05:56:52.775Z,27.23
2023-02-16T05:59:21.379Z,29.33
2023-02-16T06:01:52.279Z,29.67
2023-02-16T06:04:23.439Z,27.73
2023-02-16T06:06:51.904Z,28.33
2023-02-16T06:09:20.576Z,28.27
2023-02-16T06:11:48.989Z,29.50
2023-02-16T06:14:18.995Z,27.83
2023-02-16T06:16:49.112Z,30.43
2023-02-16T06:19:19.233Z,31.43
2023-02-16T06:21:49.527Z,30.50
2023-02-16T06:24:17.999Z,30.30
2023-02-16T06:26:46.399Z,32.07
2023-02-16T06:29:14.985Z,29.73
2023-02-16T06:31:43.545Z,29.93
2023-02-16T06:34:12.050Z,30.87
2023-02-16T06:36:42.488Z,30.07
2023-02-16T06:39:12.631Z,33.17
2023-02-16T06:41:41.156Z,30.67
2023-02-16T06:44:12.518Z,29.60
2023-02-16T06:46:41.674Z,31.50
2023-02-16T06:49:13.344Z,30.93
2023-02-16T06:51:41.842Z,33.03
2023-02-16T06:54:10.304Z,32.23
2023-02-16T06:56:40.740Z,32.47
2023-02-16T06:59:09.682Z,31.33
2023-02-16T07:01:38.063Z,30.93
2023-02-16T07:04:06.787Z,30.47
2023-02-16T07:06:35.435Z,29.50
2023-02-16T07:09:04.419Z,30.33
2023-02-16T07:11:32.953Z,28.43
2023-02-16T07:14:02.741Z,30.17
2023-02-16T07:16:31.533Z,30.40
2023-02-16T07:19:01.300Z,30.63
2023-02-16T07:21:30.183Z,31.13
2023-02-16T07:23:59.486Z,31.30
2023-02-16T07:26:28.151Z,32.90
2023-02-16T07:28:56.735Z,30.60
2023-02-16T07:31:26.847Z,30.37
2023-02-16T07:33:55.381Z,31.53
2023-02-16T07:36:23.905Z,33.30
2023-02-16T07:38:53.695Z,30.63
2023-02-16T07:41:22.439Z,30.17
2023-02-16T07:43:50.827Z,31.13
2023-02-16T07:46:19.269Z,32.17
2023-02-16T07:48:50.306Z,30.33
2023-02-16T07:51:23.473Z,30.97
2023-02-16T07:53:52.104Z,31.07
2023-02-16T07:56:26.242Z,31.47
2023-02-16T07:58:54.808Z,30.27
2023-02-16T08:01:23.835Z,31.93
2023-02-16T08:03:54.688Z,30.97
2023-02-16T08:06:31.564Z,30.03
2023-02-16T08:09:03.745Z,29.13
2023-02-16T08:11:32.233Z,31.83
2023-02-16T08:14:01.340Z,30.93
2023-02-16T08:16:30.700Z,29.57
2023-02-16T08:19:03.670Z,30.70
2023-02-16T08:21:38.304Z,32.07
2023-02-16T08:24:09.895Z,29.30
2023-02-16T08:26:40.599Z,32.57
2023-02-16T08:29:13.249Z,30.40
2023-02-16T08:31:41.978Z,28.27
2023-02-16T08:34:12.061Z,28.27
2023-02-16T08:36:41.825Z,27.60
2023-02-16T08:39:13.358Z,28.43
2023-02-16T08:41:43.523Z,25.77
2023-02-16T08:44:12.774Z,27.10
2023-02-16T08:46:43.625Z,26.00
2023-02-16T08:49:14.637Z,26.87
2023-02-16T08:51:45.273Z,25.30
2023-02-16T08:54:17.985Z,25.90
2023-02-16T08:56:48.166Z,24.57
2023-02-16T08:59:18.692Z,26.27
2023-02-16T09:01:47.782Z,25.77
2023-02-16T09:04:19.962Z,25.07
2023-02-16T09:06:50.303Z,24.23
2023-02-16T09:09:19.431Z,24.70
2023-02-16T09:11:48.365Z,24.43
2023-02-16T09:14:18.521Z,25.70
2023-02-16T09:16:47.195Z,26.07
2023-02-16T09:19:19.003Z,23.73
2023-02-16T09:21:48.467Z,24.13
2023-02-16T09:24:17.218Z,23.40
2023-02-16T09:26:45.694Z,25.30
2023-02-16T09:29:16.194Z,24.37
2023-02-16T09:31:45.662Z,24.10
2023-02-16T09:34:21.273Z,24.20
2023-02-16T09:36:50.785Z,23.93
2023-02-16T09:39:19.888Z,25.27
2023-02-16T09:42:09.088Z,23.30
2023-02-16T09:44:46.493Z,24.30
2023-02-16T09:47:24.853Z,24.87
2023-02-16T09:49:56.982Z,24.70
2023-02-16T09:52:34.768Z,26.10
2023-02-16T09:55:07.639Z,25.03
2023-02-16T09:57:46.721Z,25.27
2023-02-16T10:00:30.856Z,25.83
2023-02-16T10:03:12.313Z,26.70
2023-02-16T10:05:48.782Z,26.17
2023-02-16T10:08:23.440Z,25.07
2023-02-16T10:10:59.409Z,24.37
2023-02-16T10:13:37.949Z,25.87
2023-02-16T10:16:12.768Z,25.77
2023-02-16T10:18:45.768Z,25.70
2023-02-16T10:21:20.504Z,25.47
2023-02-16T10:23:53.288Z,26.67
2023-02-16T10:26:27.178Z,25.37
2023-02-16T10:28:58.866Z,27.03
2023-02-16T10:31:33.868Z,25.77
2023-02-16T10:34:18.074Z,29.03
2023-02-16T10:37:01.480Z,28.37
2023-02-16T10:39:38.394Z,28.23
2023-02-16T10:42:17.859Z,27.77
2023-02-16T10:44:59.565Z,27.77
2023-02-16T10:47:34.412Z,28.70
2023-02-16T10:50:02.961Z,28.47
2023-02-16T10:52:37.589Z,29.80
2023-02-16T10:55:07.094Z,27.23
2023-02-16T10:57:35.907Z,27.90
2023-02-16T11:00:10.025Z,27.30
2023-02-16T11:02:41.946Z,27.80
2023-02-16T11:05:33.975Z,27.03
2023-02-16T11:08:04.220Z,26.33
2023-02-16T11:10:38.845Z,27.87
2023-02-16T11:13:09.151Z,26.27
2023-02-16T11:15:40.614Z,27.40
2023-02-16T11:18:27.062Z,27.40
2023-02-16T11:20:57.432Z,27.27
2023-02-16T11:23:28.864Z,27.30
2023-02-16T11:26:00.431Z,29.30
2023-02-16T11:28:32.744Z,27.93
2023-02-16T11:31:06.367Z,27.63
2023-02-16T11:33:36.104Z,27.33
2023-02-16T11:36:19.358Z,26.37
2023-02-16T11:39:00.761Z,27.47
2023-02-16T11:41:30.707Z,28.20
2023-02-16T11:43:59.404Z,26.73
2023-02-16T11:46:28.004Z,27.37
2023-02-16T11:48:56.914Z,26.57
2023-02-16T11:51:34.925Z,27.13
2023-02-16T11:54:07.799Z,26.27
2023-02-16T11:56:37.439Z,24.60
2023-02-16T11:59:19.292Z,26.13
2023-02-16T12:02:02.899Z,26.73
2023-02-16T12:04:42.968Z,25.07
2023-02-16T12:07:23.312Z,26.97
2023-02-16T12:10:01.288Z,25.93
2023-02-16T12:12:38.854Z,25.87
2023-02-16T12:15:19.627Z,26.33
2023-02-16T12:18:02.744Z,25.53
2023-02-16T12:20:46.885Z,25.87
2023-02-16T12:23:27.165Z,27.17
2023-02-16T12:26:09.032Z,27.50
2023-02-16T12:28:43.815Z,25.50
2023-02-16T12:31:28.891Z,27.03
2023-02-16T12:34:08.569Z,26.47
2023-02-16T12:36:52.251Z,28.47
2023-02-16T12:39:29.309Z,26.50
2023-02-16T12:42:14.539Z,27.33
2023-02-16T12:44:48.174Z,27.40
2023-02-16T12:47:24.907Z,26.60
2023-02-16T12:49:57.336Z,27.97
2023-02-16T12:52:34.176Z,26.83
2023-02-16T12:55:13.174Z,27.37
2023-02-16T12:57:53.453Z,27.63
2023-02-16T13:00:27.133Z,26.90
2023-02-16T13:03:05.059Z,28.10
2023-02-16T13:05:38.761Z,29.00
2023-02-16T13:08:16.991Z,28.63
2023-02-16T13:10:56.635Z,30.07
2023-02-16T13:13:29.071Z,30.77
2023-02-16T13:16:04.928Z,29.10
2023-02-16T13:18:38.330Z,32.13
2023-02-16T13:21:15.613Z,33.63
2023-02-16T13:24:02.627Z,31.17
2023-02-16T13:26:48.171Z,31.13
2023-02-16T13:29:53.163Z,29.63
2023-02-16T13:32:40.746Z,27.67
2023-02-16T13:35:32.921Z,26.10
2023-02-16T13:38:24.132Z,26.30
2023-02-16T13:41:25.376Z,26.60
2023-02-16T13:43:57.456Z,26.97
2023-02-16T13:46:32.152Z,24.90
2023-02-16T13:49:02.240Z,25.00
2023-02-16T13:51:43.475Z,25.70
2023-02-16T13:54:27.012Z,25.20
2023-02-16T13:56:55.558Z,24.97
2023-02-16T14:00:01.299Z,26.17
2023-02-16T14:03:05.909Z,25.47
2023-02-16T14:05:39.382Z,25.00
2023-02-16T14:08:27.573Z,25.07
2023-02-16T14:11:14.178Z,23.60
2023-02-16T14:13:50.857Z,25.13
2023-02-16T14:16:34.884Z,24.10
2023-02-16T14:19:18.066Z,25.33
2023-02-16T14:21:48.895Z,24.00
2023-02-16T14:24:31.048Z,25.00
2023-02-16T14:27:01.403Z,25.30
2023-02-16T14:29:32.921Z,24.70
2023-02-16T14:32:07.921Z,25.17
2023-02-16T14:34:44.829Z,24.57
2023-02-16T14:37:46.063Z,25.70
2023-02-16T14:40:24.481Z,23.13
2023-02-16T14:42:57.851Z,25.73
2023-02-16T14:46:00.070Z,25.50
2023-02-16T14:48:49.640Z,25.67
2023-02-16T14:51:40.094Z,24.50
2023-02-16T14:54:41.833Z,25.03
2023-02-16T14:57:15.079Z,23.90
2023-02-16T14:59:50.272Z,24.53
2023-02-16T15:02:28.096Z,23.90
2023-02-16T15:04:56.991Z,23.77
2023-02-16T15:07:29.943Z,24.70
2023-02-16T15:10:00.026Z,24.67
2023-02-16T15:12:40.697Z,23.63
2023-02-16T15:15:18.899Z,23.47
2023-02-16T15:17:49.700Z,24.37
2023-02-16T15:20:31.185Z,24.70
2023-02-16T15:23:03.781Z,24.70
2023-02-16T15:25:34.530Z,23.63
2023-02-16T15:28:06.530Z,25.17
2023-02-16T15:30:36.975Z,23.47
2023-02-16T15:33:08.272Z,25.17
2023-02-16T15:35:39.122Z,24.30
2023-02-16T15:38:21.172Z,24.10
2023-02-16T15:40:54.628Z,23.70
2023-02-16T15:43:32.009Z,22.83
2023-02-16T15:46:01.820Z,24.40
2023-02-16T15:48:31.827Z,23.03
2023-02-16T15:51:07.337Z,23.67
2023-02-16T15:53:42.893Z,23.57
2023-02-16T15:56:31.228Z,22.57
2023-02-16T15:59:02.212Z,22.30
2023-02-16T16:01:37.472Z,22.63
2023-02-16T16:04:09.864Z,22.67
2023-02-16T16:06:41.185Z,21.07
2023-02-16T16:09:21.887Z,22.00
2023-02-16T16:11:51.893Z,20.67
2023-02-16T16:14:20.826Z,21.10
2023-02-16T16:16:49.448Z,20.50
2023-02-16T16:19:20.171Z,20.33
2023-02-16T16:21:51.984Z,18.83
2023-02-16T16:24:35.316Z,17.77
2023-02-16T16:27:07.735Z,18.50
2023-02-16T16:29:39.192Z,18.07
2023-02-16T16:32:18.374Z,18.13
2023-02-16T16:34:47.175Z,17.40
2023-02-16T16:37:29.247Z,18.10
2023-02-16T16:40:05.992Z,17.67
2023-02-16T16:42:39.233Z,17.33
2023-02-16T16:45:28.568Z,17.23
2023-02-16T16:47:57.254Z,17.10
2023-02-16T16:50:34.219Z,16.23
2023-02-16T16:53:03.242Z,16.33
2023-02-16T16:55:35.608Z,16.60
2023-02-16T16:58:08.064Z,16.13
2023-02-16T17:00:38.583Z,16.17
2023-02-16T17:03:09.034Z,15.50
2023-02-16T17:05:40.013Z,15.23
2023-02-16T17:08:08.515Z,15.87
2023-02-16T17:10:40.901Z,15.10
2023-02-16T17:13:15.234Z,14.20
2023-02-16T17:15:47.500Z,15.57
2023-02-16T17:18:17.862Z,14.30
2023-02-16T17:20:47.834Z,15.97
2023-02-16T17:23:18.333Z,15.23
2023-02-16T17:25:48.192Z,14.97
2023-02-16T17:28:19.136Z,14.10
2023-02-16T17:30:47.693Z,14.97
2023-02-16T17:33:16.190Z,15.17
2023-02-16T17:35:45.101Z,15.10
2023-02-16T17:38:15.159Z,15.43
2023-02-16T17:40:44.561Z,14.73
2023-02-16T17:43:16.445Z,14.30
2023-02-16T17:45:45.846Z,15.90
2023-02-16T17:48:17.913Z,15.87
2023-02-16T17:50:46.775Z,15.23
2023-02-16T17:53:16.280Z,15.43
2023-02-16T17:55:45.133Z,15.60
2023-02-16T17:58:16.149Z,15.20
2023-02-16T18:00:46.377Z,15.30
2023-02-16T18:03:15.064Z,14.63
2023-02-16T18:05:43.746Z,14.60
2023-02-16T18:08:12.773Z,15.20
2023-02-16T18:10:44.296Z,14.37
2023-02-16T18:13:15.002Z,13.77
2023-02-16T18:15:47.647Z,13.60
2023-02-16T18:18:17.220Z,14.47
2023-02-16T18:20:46.442Z,14.40
2023-02-16T18:23:15.451Z,14.80
2023-02-16T18:25:44.357Z,15.10
2023-02-16T18:28:18.463Z,15.57
2023-02-16T18:30:49.231Z,14.97
2023-02-16T18:33:18.459Z,14.77
2023-02-16T18:35:47.974Z,14.60
2023-02-16T18:38:16.628Z,15.50
2023-02-16T18:40:48.159Z,15.23
2023-02-16T18:43:18.293Z,15.90
2023-02-16T18:45:47.952Z,15.43
2023-02-16T18:48:16.562Z,14.63
2023-02-16T18:50:47.964Z,15.30
2023-02-16T18:53:16.615Z,15.40
2023-02-16T18:55:45.283Z,15.40
2023-02-16T18:58:17.480Z,15.83
2023-02-16T19:00:48.799Z,15.40
2023-02-16T19:03:17.365Z,16.90
2023-02-16T19:05:46.039Z,16.13
2023-02-16T19:08:14.677Z,16.23
2023-02-16T19:10:43.070Z,18.07
2023-02-16T19:13:11.467Z,17.40
2023-02-16T19:15:39.880Z,16.23
2023-02-16T19:18:09.935Z,16.40
2023-02-16T19:20:38.242Z,17.77
2023-02-16T19:23:06.882Z,16.50
2023-02-16T19:25:35.422Z,16.00
2023-02-16T19:28:03.845Z,16.63
2023-02-16T19:30:32.944Z,16.30
2023-02-16T19:33:01.462Z,16.20
2023-02-16T19:35:31.889Z,16.37
2023-02-16T19:38:00.736Z,15.67
2023-02-16T19:40:31.848Z,17.50
2023-02-16T19:43:00.638Z,17.33
2023-02-16T19:45:29.330Z,16.73
2023-02-16T19:47:57.795Z,17.00
2023-02-16T19:50:26.404Z,16.27
2023-02-16T19:52:56.129Z,15.93
2023-02-16T19:55:24.711Z,16.47
2023-02-16T19:57:53.214Z,17.57
2023-02-16T20:00:21.958Z,15.83
2023-02-16T20:02:50.658Z,16.53
2023-02-16T20:05:19.356Z,15.97
2023-02-16T20:07:47.920Z,16.37
2023-02-16T20:10:17.923Z,16.40
2023-02-16T20:12:46.404Z,18.30
2023-02-16T20:15:15.498Z,18.10
2023-02-16T20:17:43.969Z,16.57
2023-02-16T20:20:13.498Z,15.97
2023-02-16T20:22:42.128Z,16.90
2023-02-16T20:25:10.897Z,17.27
2023-02-16T20:27:41.074Z,17.57
2023-02-16T20:30:12.855Z,18.00
2023-02-16T20:32:41.282Z,18.63
2023-02-16T20:35:10.064Z,17.97
2023-02-16T20:37:38.585Z,18.37
2023-02-16T20:40:08.635Z,19.17
2023-02-16T20:42:37.230Z,18.57
2023-02-16T20:45:08.098Z,18.23
2023-02-16T20:47:36.664Z,16.73
2023-02-16T20:50:05.626Z,18.37
2023-02-16T20:52:34.762Z,19.47
2023-02-16T20:55:03.239Z,19.43
2023-02-16T20:57:31.726Z,18.50
2023-02-16T21:00:00.720Z,19.23
2023-02-16T21:02:30.559Z,20.80
2023-02-16T21:04:59.052Z,20.70
2023-02-16T21:07:27.420Z,19.70
2023-02-16T21:09:56.110Z,20.30
2023-02-16T21:12:24.526Z,20.73
2023-02-16T21:14:52.874Z,20.13
2023-02-16T21:17:22.526Z,20.47
2023-02-16T21:19:52.583Z,20.97
2023-02-16T21:22:20.986Z,21.03
2023-02-16T21:24:49.469Z,20.77
2023-02-16T21:27:18.442Z,22.40
2023-02-16T21:29:47.416Z,21.40
2023-02-16T21:32:15.928Z,21.97
2023-02-16T21:34:44.697Z,20.60
2023-02-16T21:37:14.683Z,21.00
2023-02-16T21:40:00.749Z,21.53
2023-02-16T21:42:29.169Z,22.43
2023-02-16T21:45:11.622Z,22.53
2023-02-16T21:47:57.821Z,20.57
2023-02-16T21:50:26.644Z,21.57
2023-02-16T21:52:56.677Z,22.60
2023-02-16T21:55:42.896Z,22.67
2023-02-16T21:58:11.411Z,22.90
2023-02-16T22:00:40.481Z,22.37
2023-02-16T22:03:11.295Z,20.60
2023-02-16T22:05:39.943Z,21.17
2023-02-16T22:08:09.830Z,22.23
2023-02-16T22:10:38.370Z,21.53
2023-02-16T22:13:07.101Z,21.37
2023-02-16T22:15:37.102Z,22.03
2023-02-16T22:18:06.045Z,22.27
2023-02-16T22:20:34.991Z,22.07
2023-02-16T22:23:03.762Z,22.57
2023-02-16T22:25:33.693Z,21.43
2023-02-16T22:28:02.081Z,21.67
2023-02-16T22:30:30.609Z,21.70
2023-02-16T22:32:59.092Z,20.93
2023-02-16T22:35:27.507Z,20.50
2023-02-16T22:37:56.037Z,21.40
2023-02-16T22:40:24.800Z,21.67
2023-02-16T22:42:54.680Z,21.03
2023-02-16T22:45:23.180Z,20.17
2023-02-16T22:47:51.572Z,21.63
2023-02-16T22:50:20.193Z,19.50
2023-02-16T22:52:48.937Z,19.43
2023-02-16T22:55:17.443Z,19.43
2023-02-16T22:57:45.751Z,19.57
2023-02-16T23:00:18.145Z,20.30
2023-02-16T23:02:46.579Z,18.50
2023-02-16T23:05:15.038Z,19.63
2023-02-16T23:07:43.349Z,19.57
2023-02-16T23:10:11.916Z,19.80
2023-02-16T23:12:40.270Z,19.57
2023-02-16T23:15:09.316Z,18.43
2023-02-16T23:17:39.091Z,19.30
2023-02-16T23:20:09.558Z,18.10
2023-02-16T23:22:38.029Z,17.87
2023-02-16T23:25:24.629Z,19.43
2023-02-16T23:27:53.111Z,18.33
2023-02-16T23:30:22.112Z,17.83
2023-02-16T23:32:51.823Z,18.30
2023-02-16T23:35:20.346Z,17.57
2023-02-16T23:37:48.793Z,17.13
2023-02-16T23:40:17.225Z,18.00
2023-02-16T23:42:45.657Z,17.60
2023-02-16T23:45:14.032Z,17.07
2023-02-16T23:47:42.479Z,16.50
2023-02-16T23:50:12.767Z,17.57
2023-02-16T23:52:41.213Z,15.20
2023-02-16T23:55:09.792Z,16.23
2023-02-16T23:57:38.204Z,16.20
